Time;durP1;ratioP1;P1;durP2;ratioP2;P2;SDS_P1;SDS_P2;PMS_P1;PMS_P2;Temp;Humidity;BMP_temperature;BMP_pressure;BME280_temperature;BME280_humidity;BME280_pressure;Samples;Min_cycle;Max_cycle;Signal;HPM_P1;HPM_P2
2022/08/19 00:02:43;;;;;;;13.90;9.18;;;;;;;17.43;100.00;101350.50;10334533;28;20041;-72
2022/08/19 00:07:43;;;;;;;10.07;7.47;;;;;;;17.41;100.00;101339.78;10336607;28;20130;-72
2022/08/19 00:12:44;;;;;;;12.05;10.27;;;;;;;17.40;100.00;101343.59;10317464;28;20073;-72
2022/08/19 00:17:44;;;;;;;8.65;7.75;;;;;;;17.35;100.00;101346.19;10333395;28;20034;-72
2022/08/19 00:22:45;;;;;;;13.85;9.60;;;;;;;17.37;100.00;101338.59;10334210;28;20538;-72
2022/08/19 00:27:47;;;;;;;12.55;10.27;;;;;;;17.37;100.00;101344.06;10316585;28;20053;-72
2022/08/19 00:32:47;;;;;;;11.57;10.48;;;;;;;17.41;100.00;101344.41;10316440;28;20034;-72
2022/08/19 00:37:48;;;;;;;16.27;12.02;;;;;;;17.40;100.00;101345.50;10333240;28;20042;-72
2022/08/19 00:42:49;;;;;;;27.38;10.43;;;;;;;17.44;100.00;101349.44;10335263;28;20448;-72
2022/08/19 00:47:49;;;;;;;13.65;10.07;;;;;;;17.45;100.00;101345.63;10333752;28;20031;-72
2022/08/19 00:52:50;;;;;;;11.10;9.75;;;;;;;17.49;100.00;101346.03;10333105;28;20497;-72
2022/08/19 00:58:05;;;;;;;10.93;9.63;;;;;;;17.51;100.00;101346.59;10300534;28;20034;-71
2022/08/19 01:03:08;;;;;;;16.95;10.60;;;;;;;17.63;100.00;101347.47;10316201;28;20038;-72
2022/08/19 01:08:09;;;;;;;15.50;11.85;;;;;;;17.74;100.00;101346.69;10333702;28;20038;-72
2022/08/19 01:13:09;;;;;;;14.80;10.95;;;;;;;17.81;100.00;101349.34;10333327;28;20030;-72
2022/08/19 01:18:11;;;;;;;14.65;12.02;;;;;;;17.77;100.00;101354.47;10317528;28;20398;-72
2022/08/19 01:23:11;;;;;;;13.73;11.55;;;;;;;17.78;100.00;101363.53;10317283;28;20041;-72
2022/08/19 01:28:38;;;;;;;14.68;13.25;;;;;;;17.79;100.00;101349.56;10321008;28;20113;-72
2022/08/19 01:33:38;;;;;;;18.92;13.35;;;;;;;17.80;100.00;101343.03;10335957;28;20073;-72
2022/08/19 01:38:41;;;;;;;21.83;16.27;;;;;;;17.82;100.00;101351.03;10322514;28;20093;-72
2022/08/19 01:43:41;;;;;;;27.05;18.92;;;;;;;17.79;100.00;101349.56;10340381;28;20193;-72
2022/08/19 01:48:42;;;;;;;35.40;22.08;;;;;;;17.75;100.00;101351.09;10323201;28;20038;-72
2022/08/19 01:53:42;;;;;;;24.27;18.85;;;;;;;17.78;100.00;101364.34;10339397;28;20086;-72
2022/08/19 01:58:47;;;;;;;32.30;21.25;;;;;;;17.76;100.00;101352.75;10338620;28;20525;-72
2022/08/19 02:03:47;;;;;;;32.75;23.48;;;;;;;17.70;100.00;101342.72;10323435;28;20117;-72
2022/08/19 02:08:48;;;;;;;39.80;28.85;;;;;;;17.70;100.00;101334.50;10321976;28;20038;-72
2022/08/19 02:13:49;;;;;;;40.65;26.63;;;;;;;17.76;100.00;101350.00;10321353;28;20038;-72
2022/08/19 02:18:49;;;;;;;51.10;30.75;;;;;;;17.78;100.00;101347.09;10322080;28;20410;-72
2022/08/19 02:23:50;;;;;;;40.70;26.42;;;;;;;17.79;100.00;101343.28;10304821;28;20088;-72
2022/08/19 02:28:50;;;;;;;43.42;27.58;;;;;;;17.82;100.00;101340.88;10305498;28;20472;-73
2022/08/19 02:33:52;;;;;;;34.42;24.98;;;;;;;17.85;100.00;101345.91;10337821;28;20031;-72
2022/08/19 02:38:52;;;;;;;35.78;24.65;;;;;;;17.93;100.00;101341.13;10320310;28;20077;-72
2022/08/19 02:43:57;;;;;;;34.00;25.45;;;;;;;17.93;100.00;101341.97;10321275;28;20100;-72
2022/08/19 02:49:00;;;;;;;35.65;25.92;;;;;;;17.89;100.00;101336.13;10319276;28;20129;-72
2022/08/19 02:54:01;;;;;;;32.65;23.50;;;;;;;17.83;100.00;101325.28;10337602;28;20045;-72
2022/08/19 02:59:01;;;;;;;33.55;25.73;;;;;;;17.77;100.00;101320.75;10319362;28;20355;-72
2022/08/19 03:04:03;;;;;;;38.05;26.10;;;;;;;17.74;100.00;101316.56;10302555;28;20206;-72
2022/08/19 03:09:04;;;;;;;48.45;29.92;;;;;;;17.73;100.00;101314.88;10287129;28;20030;-72
2022/08/19 03:14:05;;;;;;;41.22;28.58;;;;;;;17.79;100.00;101313.97;10337450;28;20092;-72
2022/08/19 03:19:06;;;;;;;36.65;26.25;;;;;;;17.76;100.00;101308.91;10336028;28;20033;-72
2022/08/19 03:24:07;;;;;;;41.10;28.48;;;;;;;17.82;100.00;101315.41;10337583;28;20049;-72
2022/08/19 03:29:10;;;;;;;50.65;30.63;;;;;;;17.82;100.00;101310.75;10335825;28;20034;-72
2022/08/19 03:34:18;;;;;;;44.08;29.65;;;;;;;17.78;100.00;101300.53;10336711;28;20027;-72
2022/08/19 03:39:18;;;;;;;52.40;31.92;;;;;;;17.73;100.00;101305.81;10336786;28;20122;-72
2022/08/19 03:44:21;;;;;;;53.47;31.27;;;;;;;17.69;100.00;101307.38;10335558;28;20118;-72
2022/08/19 03:49:23;;;;;;;62.35;35.00;;;;;;;17.65;100.00;101316.06;10317076;28;20030;-72
2022/08/19 03:54:24;;;;;;;59.00;39.83;;;;;;;17.63;100.00;101312.72;10336870;28;20029;-74
2022/08/19 03:59:29;;;;;;;88.30;43.88;;;;;;;17.65;100.00;101317.97;10317597;28;20027;-72
2022/08/19 04:04:30;;;;;;;62.92;42.20;;;;;;;17.61;100.00;101320.34;10318087;28;20058;-72
2022/08/19 04:09:30;;;;;;;71.15;41.05;;;;;;;17.62;100.00;101329.38;10335538;28;20034;-72
2022/08/19 04:14:31;;;;;;;77.78;43.85;;;;;;;17.76;100.00;101327.28;10333851;28;20030;-72
2022/08/19 04:19:33;;;;;;;69.22;44.40;;;;;;;17.90;100.00;101337.00;10300812;28;20471;-72
2022/08/19 04:24:34;;;;;;;65.25;43.70;;;;;;;18.06;100.00;101338.19;10318135;28;20057;-72
2022/08/19 04:29:34;;;;;;;60.70;40.38;;;;;;;18.16;100.00;101338.44;10334175;28;20458;-72
2022/08/19 04:34:35;;;;;;;70.10;42.63;;;;;;;18.24;100.00;101335.34;10318023;28;20043;-72
2022/08/19 04:44:54;;;;;;;70.15;39.38;;;;;;;18.33;100.00;101322.13;10319218;28;20466;-72
2022/08/19 04:49:55;;;;;;;53.85;37.15;;;;;;;18.41;100.00;101327.25;10335322;28;20042;-72
2022/08/19 04:54:55;;;;;;;56.75;35.60;;;;;;;18.47;100.00;101329.00;10316046;28;20045;-73
2022/08/19 04:59:56;;;;;;;53.92;33.50;;;;;;;18.52;100.00;101328.31;10334576;28;20039;-72
2022/08/19 05:04:58;;;;;;;55.42;36.03;;;;;;;18.57;100.00;101331.19;10309497;28;20038;-72
2022/08/19 05:09:58;;;;;;;60.17;32.92;;;;;;;18.62;100.00;101339.50;10341809;28;20054;-72
2022/08/19 05:15:00;;;;;;;45.92;32.03;;;;;;;18.68;100.00;101341.28;10340987;28;20074;-72
2022/08/19 05:25:20;;;;;;;53.88;31.38;;;;;;;18.78;100.00;101332.47;10341016;28;20038;-72
2022/08/19 05:30:20;;;;;;;55.30;33.20;;;;;;;18.87;100.00;101330.19;10340933;28;20045;-72
2022/08/19 05:35:23;;;;;;;47.25;28.58;;;;;;;18.93;100.00;101332.81;10322753;28;20038;-72
2022/08/19 05:40:24;;;;;;;50.40;29.58;;;;;;;18.96;100.00;101336.97;10340476;28;20063;-72
2022/08/19 05:45:25;;;;;;;54.80;31.17;;;;;;;19.03;100.00;101322.03;10339145;28;20109;-72
2022/08/19 05:50:28;;;;;;;53.67;28.40;;;;;;;19.12;100.00;101318.91;10340597;28;20042;-73
2022/08/19 05:55:30;;;;;;;48.42;26.20;;;;;;;19.23;100.00;101323.50;10323329;28;20058;-73
2022/08/19 06:00:31;;;;;;;56.95;27.98;;;;;;;19.29;100.00;101333.50;10338422;28;20038;-72
2022/08/19 06:05:31;;;;;;;52.40;27.20;;;;;;;19.40;100.00;101334.53;10324080;28;20042;-72
2022/08/19 06:10:31;;;;;;;40.75;25.33;;;;;;;19.55;100.00;101339.50;10322541;28;20431;-73
2022/08/19 06:15:32;;;;;;;40.30;27.42;;;;;;;19.68;100.00;101330.97;10339584;28;20034;-73
2022/08/19 06:20:32;;;;;;;33.97;24.80;;;;;;;19.88;100.00;101334.09;10320805;28;20042;-73
2022/08/19 06:25:32;;;;;;;42.60;24.85;;;;;;;20.11;100.00;101332.25;10337924;28;20034;-73
2022/08/19 06:30:33;;;;;;;49.47;24.77;;;;;;;20.59;100.00;101325.28;10338108;28;20043;-73
2022/08/19 06:35:38;;;;;;;38.70;23.92;;;;;;;21.19;100.00;101329.91;10322409;28;20026;-72
2022/08/19 06:40:39;;;;;;;40.67;22.42;;;;;;;21.63;100.00;101334.50;10320275;28;20050;-74
2022/08/19 06:45:39;;;;;;;32.85;21.88;;;;;;;21.78;100.00;101337.41;10321011;28;20042;-73
2022/08/19 06:50:40;;;;;;;39.40;20.60;;;;;;;21.51;100.00;101327.25;10336967;28;20482;-76
2022/08/19 06:55:40;;;;;;;33.13;19.83;;;;;;;21.64;100.00;101331.50;10337426;28;20038;-75
2022/08/19 07:00:40;;;;;;;27.42;20.02;;;;;;;21.69;100.00;101333.47;10321109;28;20038;-74
2022/08/19 07:05:41;;;;;;;28.58;18.00;;;;;;;21.62;100.00;101333.69;10320267;28;20393;-75
2022/08/19 07:10:45;;;;;;;29.25;18.02;;;;;;;21.61;100.00;101331.22;10337238;28;20128;-74
2022/08/19 07:15:46;;;;;;;33.28;17.45;;;;;;;22.03;100.00;101342.34;10318748;28;20463;-74
2022/08/19 07:20:47;;;;;;;24.55;15.55;;;;;;;22.62;100.00;101342.22;10336323;28;20125;-76
2022/08/19 07:25:48;;;;;;;34.25;15.45;;;;;;;23.50;100.00;101351.72;10301857;28;20038;-74
2022/08/19 07:30:49;;;;;;;24.65;15.25;;;;;;;23.14;100.00;101355.19;10335653;28;20434;-75
2022/08/19 07:35:50;;;;;;;16.67;12.65;;;;;;;22.67;100.00;101353.28;10335787;28;20398;-75
2022/08/19 07:40:51;;;;;;;20.35;14.05;;;;;;;22.58;100.00;101356.81;10335966;28;20054;-74
2022/08/19 07:45:55;;;;;;;20.15;12.93;;;;;;;22.41;100.00;101359.75;10307132;28;20339;-74
2022/08/19 07:50:59;;;;;;;19.10;12.68;;;;;;;22.62;100.00;101356.03;10318011;28;20110;-75
2022/08/19 07:56:03;;;;;;;28.48;11.60;;;;;;;22.93;100.00;101356.19;10269364;28;20038;-74
2022/08/19 08:01:04;;;;;;;22.92;13.48;;;;;;;23.34;100.00;101351.66;10318679;28;20057;-74
2022/08/19 08:11:25;;;;;;;13.15;10.38;;;;;;;23.57;100.00;101374.38;10316877;28;20058;-74
2022/08/19 08:16:29;;;;;;;7.50;6.80;;;;;;;24.68;100.00;101369.19;10265611;28;20074;-75
2022/08/19 08:21:30;;;;;;;7.95;5.88;;;;;;;24.74;100.00;101371.66;10283670;28;20092;-75
2022/08/19 08:26:32;;;;;;;11.02;6.45;;;;;;;26.32;100.00;101367.13;10299145;28;20415;-75
2022/08/19 08:31:33;;;;;;;7.97;6.50;;;;;;;26.57;100.00;101371.63;10282158;28;20079;-75
2022/08/19 08:36:41;;;;;;;10.35;5.13;;;;;;;25.86;100.00;101380.59;10287193;28;20427;-77
2022/08/19 08:42:19;;;;;;;10.88;5.60;;;;;;;24.96;100.00;101374.06;10313386;28;20097;-77
2022/08/19 08:47:19;;;;;;;7.88;5.28;;;;;;;24.68;100.00;101386.63;10323642;28;20451;-76
2022/08/19 08:52:29;;;;;;;7.13;5.55;;;;;;;25.77;100.00;101385.06;10323390;28;20045;-76
2022/08/19 08:57:36;;;;;;;7.38;6.10;;;;;;;26.24;100.00;101386.38;10323600;28;20145;-77
2022/08/19 09:02:37;;;;;;;8.15;6.05;;;;;;;27.44;100.00;101390.09;10323818;28;20088;-77
2022/08/19 09:07:59;;;;;;;12.50;6.22;;;;;;;28.79;100.00;101384.84;10306480;28;20088;-75
2022/08/19 09:13:22;;;;;;;15.90;6.15;;;;;;;27.13;100.00;101389.63;10322576;28;20130;-75
2022/08/19 09:18:23;;;;;;;8.65;6.35;;;;;;;25.77;100.00;101390.59;10324471;28;20098;-75
2022/08/19 09:23:24;;;;;;;6.13;3.25;;;;;;;24.74;100.00;101396.59;10323467;28;20423;-74
2022/08/19 09:28:25;;;;;;;11.50;3.30;;;;;;;24.17;100.00;101405.19;10323974;28;20077;-71
2022/08/19 09:33:26;;;;;;;10.68;3.75;;;;;;;23.70;100.00;101412.59;10320779;28;20178;-72
2022/08/19 09:38:26;;;;;;;5.32;3.90;;;;;;;23.70;100.00;101418.13;10331312;28;20062;-72
2022/08/19 09:43:27;;;;;;;3.65;3.35;;;;;;;23.70;100.00;101412.59;10323295;28;20038;-70
2022/08/19 09:48:28;;;;;;;4.63;3.80;;;;;;;23.93;100.00;101418.72;10338709;28;20065;-76
2022/08/19 09:53:28;;;;;;;10.80;4.20;;;;;;;24.54;100.00;101422.38;10339050;28;20077;-76
2022/08/19 09:58:29;;;;;;;5.25;4.65;;;;;;;25.02;100.00;101414.50;10321404;28;20039;-72
2022/08/19 10:03:30;;;;;;;9.38;6.25;;;;;;;27.17;100.00;101415.75;10340164;28;20473;-78
2022/08/19 10:08:33;;;;;;;5.70;5.07;;;;;;;28.53;93.91;101413.19;10339256;28;20068;-73
2022/08/19 10:13:34;;;;;;;7.78;4.30;;;;;;;27.70;98.33;101417.56;10322950;28;20042;-72
2022/08/19 10:18:35;;;;;;;4.22;3.35;;;;;;;26.65;100.00;101415.47;10338250;28;20126;-72
2022/08/19 10:23:36;;;;;;;7.40;3.35;;;;;;;26.13;100.00;101414.25;10320141;28;20121;-72
2022/08/19 10:28:37;;;;;;;10.65;3.33;;;;;;;26.12;100.00;101412.56;10337903;28;20038;-75
2022/08/19 10:33:37;;;;;;;2.70;2.28;;;;;;;25.67;100.00;101417.28;10283437;28;20057;-75
2022/08/19 10:38:38;;;;;;;4.30;2.13;;;;;;;24.95;100.00;101415.91;10320048;28;20120;-76
2022/08/19 10:43:39;;;;;;;3.63;3.03;;;;;;;24.43;100.00;101423.47;10326261;28;20383;-76
2022/08/19 10:48:41;;;;;;;3.22;2.75;;;;;;;24.29;100.00;101419.59;10287668;28;20443;-75
2022/08/19 10:53:41;;;;;;;2.83;2.50;;;;;;;24.61;100.00;101427.63;10303538;28;20144;-74
2022/08/19 10:58:42;;;;;;;7.03;3.55;;;;;;;24.70;100.00;101414.88;10286500;28;20060;-74
2022/08/19 11:03:44;;;;;;;3.80;1.63;;;;;;;24.48;100.00;101411.59;10302865;28;20027;-74
2022/08/19 11:08:45;;;;;;;3.63;2.63;;;;;;;24.21;100.00;101417.38;10302912;28;20217;-74
2022/08/19 11:13:46;;;;;;;3.90;2.42;;;;;;;24.04;100.00;101409.34;10320835;28;20038;-74
2022/08/19 11:18:49;;;;;;;2.25;2.15;;;;;;;23.94;100.00;101414.88;10286914;28;20074;-73
2022/08/19 11:23:52;;;;;;;2.78;2.55;;;;;;;24.33;100.00;101421.50;10270126;28;20049;-73
2022/08/19 11:28:54;;;;;;;2.88;2.13;;;;;;;24.56;100.00;101425.69;10284157;28;20038;-74
2022/08/19 11:33:59;;;;;;;3.55;2.75;;;;;;;24.28;100.00;101424.31;10300428;28;20454;-73
2022/08/19 11:39:01;;;;;;;5.75;3.75;;;;;;;23.94;100.00;101424.00;10318545;28;20058;-74
2022/08/19 11:44:02;;;;;;;6.15;4.15;;;;;;;23.84;100.00;101427.56;10300911;28;20113;-74
2022/08/19 11:49:07;;;;;;;5.63;3.88;;;;;;;23.99;100.00;101426.75;10285403;28;20058;-75
2022/08/19 11:54:08;;;;;;;10.07;4.10;;;;;;;23.90;100.00;101422.88;10268146;28;20445;-77
2022/08/19 11:59:10;;;;;;;5.93;3.35;;;;;;;24.38;100.00;101420.69;10299840;28;20057;-77
2022/08/19 12:04:11;;;;;;;7.00;3.25;;;;;;;24.96;100.00;101417.59;10299310;28;20355;-78
2022/08/19 12:09:15;;;;;;;4.00;3.63;;;;;;;25.02;100.00;101422.00;10317469;28;20049;-77
2022/08/19 12:14:16;;;;;;;3.22;2.72;;;;;;;24.34;100.00;101428.69;10268778;28;20115;-75
2022/08/19 12:19:17;;;;;;;6.57;2.97;;;;;;;23.97;100.00;101419.84;10317817;28;20118;-76
2022/08/19 12:24:22;;;;;;;7.78;3.83;;;;;;;24.24;100.00;101419.59;10298289;28;20061;-74
2022/08/19 12:29:28;;;;;;;3.93;3.63;;;;;;;25.10;100.00;101418.63;10299668;28;20030;-74
2022/08/19 12:34:29;;;;;;;2.75;2.55;;;;;;;25.66;100.00;101421.19;10283653;28;20045;-75
2022/08/19 12:39:35;;;;;;;8.70;3.72;;;;;;;25.73;100.00;101413.38;10282789;28;20068;-75
2022/08/19 12:44:37;;;;;;;6.78;2.72;;;;;;;25.97;100.00;101409.91;10299255;28;20073;-76
2022/08/19 12:49:39;;;;;;;6.45;4.22;;;;;;;26.30;100.00;101399.09;10283981;28;20045;-76
2022/08/19 12:54:41;;;;;;;2.58;2.38;;;;;;;26.55;100.00;101398.91;10281819;28;20404;-75
2022/08/19 12:59:42;;;;;;;6.75;4.07;;;;;;;26.31;100.00;101397.97;10297822;28;20136;-76
2022/08/19 13:04:46;;;;;;;4.05;2.25;;;;;;;25.74;100.00;101395.59;10281009;28;20516;-75
2022/08/19 13:09:47;;;;;;;4.40;2.60;;;;;;;25.70;100.00;101393.69;10282235;28;20097;-77
2022/08/19 13:14:53;;;;;;;3.10;2.08;;;;;;;25.48;100.00;101394.94;10316212;28;20042;-75
2022/08/19 13:19:55;;;;;;;9.25;3.03;;;;;;;25.83;100.00;101400.59;10298206;28;20071;-76
2022/08/19 13:24:57;;;;;;;4.32;2.72;;;;;;;25.98;100.00;101406.84;10286662;28;20129;-75
2022/08/19 13:35:19;;;;;;;2.22;2.13;;;;;;;25.74;100.00;101400.31;10322794;28;20048;-75
2022/08/19 13:40:26;;;;;;;3.90;2.95;;;;;;;25.96;100.00;101395.19;10323239;28;20110;-75
2022/08/19 13:45:28;;;;;;;2.20;2.03;;;;;;;26.24;100.00;101392.75;10273119;28;20075;-75
2022/08/19 13:50:33;;;;;;;3.42;2.30;;;;;;;26.01;100.00;101399.91;10274659;28;20094;-76
2022/08/19 13:55:34;;;;;;;3.58;2.88;;;;;;;25.87;100.00;101380.28;10322934;28;20078;-79
2022/08/19 14:00:37;;;;;;;3.53;2.88;;;;;;;26.15;100.00;101386.19;10288895;28;20030;-77
2022/08/19 14:05:38;;;;;;;3.67;2.70;;;;;;;26.40;100.00;101376.78;10305087;28;20176;-71
2022/08/19 14:10:42;;;;;;;7.07;2.67;;;;;;;26.79;100.00;101373.91;10322654;28;20442;-72
2022/08/19 14:15:43;;;;;;;2.65;2.28;;;;;;;26.26;100.00;101378.56;10303884;28;20498;-71
2022/08/19 14:20:44;;;;;;;4.55;3.97;;;;;;;25.97;100.00;101373.81;10302962;28;20065;-72
2022/08/19 14:25:46;;;;;;;3.30;3.03;;;;;;;25.80;100.00;101381.69;10285367;28;20109;-71
2022/08/19 14:30:47;;;;;;;2.53;2.33;;;;;;;25.53;100.00;101374.69;10319289;28;20030;-73
2022/08/19 14:35:48;;;;;;;7.38;2.53;;;;;;;25.27;100.00;101383.13;10319750;28;20050;-72
2022/08/19 14:40:49;;;;;;;3.67;2.95;;;;;;;25.55;100.00;101379.91;10271039;28;20137;-71
2022/08/19 14:45:51;;;;;;;5.47;3.13;;;;;;;25.72;100.00;101378.44;10240719;28;20177;-72
2022/08/19 14:50:53;;;;;;;3.50;3.20;;;;;;;25.74;100.00;101380.91;10286277;28;20038;-72
2022/08/19 14:55:54;;;;;;;7.85;4.78;;;;;;;25.49;100.00;101385.50;10285268;28;20121;-72
2022/08/19 15:00:55;;;;;;;4.72;2.95;;;;;;;24.74;100.00;101391.03;10302297;28;20081;-72
2022/08/19 15:05:58;;;;;;;2.88;2.53;;;;;;;23.53;100.00;101398.16;10287360;28;20114;-69
2022/08/19 15:11:15;;;;;;;2.15;2.05;;;;;;;22.62;100.00;101404.88;10283236;28;20038;-71
2022/08/19 15:16:17;;;;;;;;;;;;;;;22.38;100.00;101419.06;10295826;28;20466;-71
2022/08/19 15:21:17;;;;;;;2.50;2.05;;;;;;;22.19;100.00;101404.00;10336612;28;20008;-71
2022/08/19 15:26:18;;;;;;;2.50;2.30;;;;;;;22.05;100.00;101418.19;10318540;28;20042;-71
2022/08/19 15:31:21;;;;;;;2.50;2.28;;;;;;;22.04;100.00;101416.50;10318414;28;20033;-70
2022/08/19 15:36:21;;;;;;;2.85;2.10;;;;;;;22.13;100.00;101413.28;10318924;28;20418;-70
2022/08/19 15:41:24;;;;;;;3.15;2.33;;;;;;;22.08;100.00;101421.50;10320315;28;20107;-71
2022/08/19 15:46:27;;;;;;;2.53;1.92;;;;;;;22.06;100.00;101425.38;10335590;28;20073;-71
2022/08/19 15:51:29;;;;;;;2.05;1.95;;;;;;;22.09;100.00;101425.94;10334918;28;20080;-71
2022/08/19 16:07:24;;;;;;;2.05;1.95;;;;;;;22.62;100.00;101414.00;10333986;28;20046;-71
2022/08/19 16:12:28;;;;;;;3.50;1.70;;;;;;;22.83;100.00;101408.59;10332886;28;20058;-71
2022/08/19 16:17:28;;;;;;;1.90;1.80;;;;;;;22.95;100.00;101417.53;10332964;28;20467;-71
2022/08/19 16:22:32;;;;;;;3.03;2.80;;;;;;;22.83;100.00;101414.94;10333062;28;20097;-71
2022/08/19 16:27:33;;;;;;;5.72;2.97;;;;;;;22.81;100.00;101411.59;10333427;28;20109;-71
2022/08/19 16:32:33;;;;;;;2.05;1.95;;;;;;;22.57;100.00;101413.94;10333764;28;20462;-71
2022/08/19 16:37:34;;;;;;;2.97;2.08;;;;;;;22.35;100.00;101414.06;10334537;28;20129;-71
2022/08/19 16:42:35;;;;;;;2.78;2.13;;;;;;;22.19;100.00;101421.38;10316728;28;20065;-71
2022/08/19 16:47:35;;;;;;;4.80;2.97;;;;;;;22.12;100.00;101417.97;10334856;28;20061;-71
2022/08/19 16:52:36;;;;;;;2.60;2.40;;;;;;;21.93;100.00;101419.47;10317935;28;20038;-71
2022/08/19 16:57:36;;;;;;;3.55;3.25;;;;;;;21.80;100.00;101421.53;10336865;28;20471;-71
2022/08/19 17:02:38;;;;;;;3.80;3.50;;;;;;;21.73;100.00;101420.91;10340886;28;20049;-71
2022/08/19 17:07:38;;;;;;;8.00;4.35;;;;;;;21.65;100.00;101418.59;10341287;28;20398;-71
2022/08/19 17:12:39;;;;;;;7.30;3.90;;;;;;;21.57;100.00;101413.56;10323766;28;20055;-71
2022/08/19 17:17:40;;;;;;;5.97;5.38;;;;;;;21.47;100.00;101413.44;10340500;28;20094;-71
2022/08/19 17:22:40;;;;;;;5.38;4.30;;;;;;;21.41;100.00;101418.06;10341142;28;20084;-71
2022/08/19 17:27:40;;;;;;;5.43;5.03;;;;;;;21.36;100.00;101418.00;10341568;28;20111;-72
2022/08/19 17:32:41;;;;;;;5.20;4.70;;;;;;;21.28;100.00;101427.53;10339820;28;20042;-71
2022/08/19 17:37:41;;;;;;;4.68;3.30;;;;;;;21.30;100.00;101422.59;10323617;28;20034;-71
2022/08/19 17:42:42;;;;;;;5.63;4.72;;;;;;;;;;10338580;28;20450;-71
2022/08/19 17:47:43;;;;;;;4.20;3.90;;;;;;;;;;10339946;28;20042;-71
2022/08/19 17:52:43;;;;;;;7.00;5.47;;;;;;;21.33;100.00;101430.34;10339683;28;20033;-71
2022/08/19 17:57:44;;;;;;;15.07;5.97;;;;;;;21.36;100.00;101429.84;10338653;28;20045;-71
2022/08/19 18:02:55;;;;;;;5.68;4.47;;;;;;;21.42;100.00;101440.94;10339327;28;20470;-71
2022/08/19 18:07:55;;;;;;;8.52;5.32;;;;;;;21.45;100.00;101443.19;10338800;28;20038;-71
2022/08/19 18:12:57;;;;;;;4.40;3.92;;;;;;;21.43;100.00;101446.19;10339154;28;20190;-71
2022/08/19 18:17:57;;;;;;;4.07;3.67;;;;;;;21.42;100.00;101443.69;10336735;28;20032;-65
2022/08/19 18:22:59;;;;;;;4.97;3.95;;;;;;;21.43;100.00;101451.69;10337647;28;20093;-65
2022/08/19 18:28:00;;;;;;;3.72;3.42;;;;;;;21.39;100.00;101444.22;10339604;28;20034;-66
2022/08/19 18:33:02;;;;;;;4.93;4.32;;;;;;;21.36;100.00;101460.16;10320362;28;20470;-65
2022/08/19 18:49:02;;;;;;;6.55;3.53;;;;;;;21.38;100.00;101468.19;10337244;28;20036;-67
2022/08/19 18:54:01;;;;;;;13.38;2.97;;;;;;;21.32;100.00;101480.19;10338123;28;20121;-67
2022/08/19 18:59:02;;;;;;;9.98;3.88;;;;;;;21.31;100.00;101495.03;10338577;28;20038;-67
2022/08/19 19:04:05;;;;;;;3.55;2.97;;;;;;;21.27;100.00;101499.41;10336791;28;20517;-68
2022/08/19 19:09:10;;;;;;;6.53;3.83;;;;;;;21.18;100.00;101499.00;10321453;28;20034;-67
2022/08/19 19:14:12;;;;;;;7.22;3.72;;;;;;;21.14;100.00;101509.69;10336795;28;20038;-67
2022/08/19 19:19:13;;;;;;;8.70;3.92;;;;;;;21.12;100.00;101506.38;10335696;28;20048;-67
2022/08/19 19:24:20;;;;;;;5.95;3.70;;;;;;;21.10;100.00;101503.03;10305745;28;20072;-69
2022/08/19 19:29:21;;;;;;;4.93;3.67;;;;;;;21.10;100.00;101525.06;10336918;28;20107;-67
2022/08/19 19:34:22;;;;;;;5.82;3.13;;;;;;;21.05;100.00;101505.69;10336739;28;20125;-68
2022/08/19 19:39:22;;;;;;;8.05;4.47;;;;;;;20.99;100.00;101528.72;10334766;28;20505;-67
2022/08/19 19:44:22;;;;;;;6.90;3.22;;;;;;;20.88;100.00;101535.16;10303085;28;20038;-68
2022/08/19 19:49:23;;;;;;;9.13;2.88;;;;;;;20.85;100.00;101536.50;10319119;28;20038;-68
2022/08/19 19:54:23;;;;;;;4.35;3.67;;;;;;;20.84;100.00;101536.78;10335502;28;20478;-68
2022/08/19 19:59:24;;;;;;;7.45;3.78;;;;;;;20.80;100.00;101530.91;10317981;28;20108;-68
2022/08/19 20:04:25;;;;;;;4.82;3.63;;;;;;;20.83;100.00;101524.06;10335517;28;20030;-68
2022/08/19 20:09:25;;;;;;;9.63;4.05;;;;;;;20.87;100.00;101531.59;10335183;28;20038;-68
2022/08/19 20:14:30;;;;;;;7.65;3.33;;;;;;;20.93;100.00;101524.25;10318071;28;20038;-67
2022/08/19 20:19:31;;;;;;;5.82;2.92;;;;;;;20.91;100.00;101520.91;10334511;28;20061;-67
2022/08/19 20:24:34;;;;;;;8.35;3.50;;;;;;;20.90;100.00;101517.31;10316993;28;20104;-68
2022/08/19 20:29:34;;;;;;;3.83;2.80;;;;;;;20.92;100.00;101522.56;10317732;28;20034;-68
2022/08/19 20:34:35;;;;;;;12.50;4.68;;;;;;;20.94;100.00;101505.81;10315506;28;20046;-68
2022/08/19 20:39:36;;;;;;;3.08;2.88;;;;;;;20.94;100.00;101508.56;10332669;28;20462;-68
2022/08/19 20:44:37;;;;;;;2.75;2.55;;;;;;;20.90;100.00;101514.56;10330149;28;20034;-68
2022/08/19 20:49:37;;;;;;;3.28;2.38;;;;;;;20.91;100.00;101520.91;10348634;28;20041;-67
2022/08/19 20:54:38;;;;;;;10.18;3.28;;;;;;;20.88;100.00;101524.16;10330249;28;20117;-68
2022/08/19 20:59:38;;;;;;;12.40;4.15;;;;;;;20.89;100.00;101521.13;10330936;28;20393;-68
2022/08/19 21:04:39;;;;;;;6.10;3.50;;;;;;;20.87;100.00;101526.09;10297852;28;20061;-70
2022/08/19 21:09:39;;;;;;;8.05;3.40;;;;;;;20.84;100.00;101521.06;10330957;28;20034;-70
2022/08/19 21:14:40;;;;;;;8.18;3.33;;;;;;;20.81;100.00;101529.00;10347193;28;20117;-70
2022/08/19 21:19:41;;;;;;;3.67;2.85;;;;;;;20.60;100.00;101514.06;10329716;28;20038;-70
2022/08/19 21:24:42;;;;;;;3.97;3.58;;;;;;;20.46;100.00;101502.53;10330616;28;20354;-71
2022/08/19 21:29:42;;;;;;;7.38;3.40;;;;;;;20.34;100.00;101515.50;10346522;28;20465;-70
2022/08/19 21:34:42;;;;;;;7.15;2.92;;;;;;;20.27;100.00;101512.09;10347809;28;20033;-71
2022/08/19 21:39:43;;;;;;;8.73;3.55;;;;;;;20.24;100.00;101512.59;10328822;28;20054;-71
2022/08/19 21:44:44;;;;;;;4.10;3.78;;;;;;;20.24;100.00;101515.34;10341639;28;20042;-70
2022/08/19 21:49:44;;;;;;;7.70;3.63;;;;;;;20.25;100.00;101517.00;10339571;28;20466;-70
2022/08/19 21:54:45;;;;;;;3.25;3.00;;;;;;;20.21;100.00;101516.66;10340152;28;20038;-70
2022/08/19 21:59:45;;;;;;;8.45;3.45;;;;;;;20.17;100.00;101521.81;10340273;28;20030;-69
2022/08/19 22:04:46;;;;;;;2.90;2.60;;;;;;;20.02;100.00;101523.44;10339233;28;20037;-70
2022/08/19 22:09:47;;;;;;;11.63;3.15;;;;;;;19.90;100.00;101527.06;10321630;28;20041;-70
2022/08/19 22:14:47;;;;;;;3.22;2.92;;;;;;;19.74;100.00;101534.16;10322276;28;20110;-70
2022/08/19 22:19:48;;;;;;;2.90;2.67;;;;;;;19.67;100.00;101532.63;10338595;28;20355;-65
2022/08/19 22:24:50;;;;;;;3.83;2.92;;;;;;;19.77;100.00;101537.50;10338846;28;20034;-64
2022/08/19 22:29:50;;;;;;;5.75;2.60;;;;;;;19.81;100.00;101534.00;10338393;28;20042;-63
2022/08/19 22:34:51;;;;;;;8.88;2.85;;;;;;;19.70;100.00;101534.91;10337321;28;20045;-64
2022/08/19 22:39:52;;;;;;;4.80;3.35;;;;;;;19.48;100.00;101541.00;10337546;28;20050;-66
2022/08/19 22:44:56;;;;;;;3.40;3.05;;;;;;;19.37;100.00;101538.25;10319374;28;20041;-64
2022/08/19 22:49:56;;;;;;;6.43;3.00;;;;;;;19.29;100.00;101540.28;10337723;28;20113;-64
2022/08/19 22:54:59;;;;;;;4.90;3.78;;;;;;;19.14;100.00;101531.69;10336741;28;20339;-64
2022/08/19 23:00:00;;;;;;;6.22;4.20;;;;;;;19.01;100.00;101529.19;10337138;28;20033;-64
2022/08/19 23:05:01;;;;;;;3.72;3.08;;;;;;;18.91;100.00;101531.72;10336843;28;20089;-65
2022/08/19 23:10:06;;;;;;;4.90;3.03;;;;;;;18.81;100.00;101535.03;10337447;28;20437;-65
2022/08/19 23:15:24;;;;;;;3.55;3.28;;;;;;;18.84;100.00;101536.47;10319540;28;20030;-65
2022/08/19 23:20:26;;;;;;;5.25;3.47;;;;;;;18.87;100.00;101549.72;10336539;28;20034;-67
2022/08/19 23:25:28;;;;;;;4.95;3.60;;;;;;;18.83;100.00;101532.91;10335246;28;20030;-65